Time;durP1;ratioP1;P1;durP2;ratioP2;P2;SDS_P1;SDS_P2;PMS_P1;PMS_P2;Temp;Humidity;BMP_temperature;BMP_pressure;BME280_temperature;BME280_humidity;BME280_pressure;Samples;Min_cycle;Max_cycle;Signal;HPM_P1;HPM_P2
2021/03/17 00:00:18;;;;;;;7.20;3.30;;;3.80;85.60;;;;;;5001521;28;20583;-59
2021/03/17 00:03:02;;;;;;;5.15;3.47;;;3.80;85.70;;;;;;5004230;28;20639;-58
2021/03/17 00:05:48;;;;;;;6.47;3.25;;;3.70;85.80;;;;;;5003725;28;20044;-58
2021/03/17 00:08:32;;;;;;;4.15;3.30;;;3.70;86.10;;;;;;5003060;28;20065;-59
2021/03/17 00:11:16;;;;;;;5.43;3.22;;;3.70;86.30;;;;;;5004414;28;20052;-58
2021/03/17 00:14:00;;;;;;;6.05;3.03;;;3.60;86.70;;;;;;5003397;28;20049;-58
2021/03/17 00:16:45;;;;;;;7.45;3.75;;;3.60;86.80;;;;;;5001457;28;20552;-59
2021/03/17 00:19:28;;;;;;;6.07;3.53;;;3.60;87.20;;;;;;5003020;28;20104;-59
2021/03/17 00:22:13;;;;;;;5.78;3.33;;;3.60;87.30;;;;;;5002673;28;20548;-58
2021/03/17 00:24:57;;;;;;;4.95;3.22;;;3.60;87.30;;;;;;5002787;28;20049;-59
2021/03/17 00:27:41;;;;;;;5.93;3.08;;;3.70;87.20;;;;;;5003817;28;20053;-58
2021/03/17 00:30:25;;;;;;;7.22;3.92;;;3.70;87.10;;;;;;5003246;28;20037;-59
2021/03/17 00:33:11;;;;;;;6.38;3.47;;;3.70;87.00;;;;;;4990518;28;20073;-59
2021/03/17 00:35:55;;;;;;;7.65;3.10;;;3.70;87.20;;;;;;5001913;28;20624;-59
2021/03/17 00:38:39;;;;;;;7.55;3.33;;;3.60;87.30;;;;;;5002250;28;20045;-58
2021/03/17 00:41:23;;;;;;;5.25;3.15;;;3.60;87.40;;;;;;5001588;28;20048;-58
2021/03/17 00:44:07;;;;;;;8.02;3.50;;;3.60;87.20;;;;;;5002765;28;20160;-59
2021/03/17 00:46:52;;;;;;;5.95;3.28;;;3.60;87.20;;;;;;5001523;28;20389;-59
2021/03/17 00:49:22;;;;;;;6.68;3.30;;;3.60;87.20;;;;;;5002653;28;20374;-59
2021/03/17 00:51:51;;;;;;;6.38;3.13;;;3.60;87.10;;;;;;5002106;28;20537;-59
2021/03/17 00:54:36;;;;;;;7.68;3.13;;;3.60;86.90;;;;;;5003070;28;20831;-59
2021/03/17 00:57:19;;;;;;;8.10;3.60;;;3.60;86.90;;;;;;4969896;28;20481;-59
2021/03/17 00:59:44;;;;;;;8.23;3.40;;;3.60;87.00;;;;;;4991615;28;20042;-59
2021/03/17 01:02:10;;;;;;;6.15;3.40;;;3.50;87.10;;;;;;5001646;28;20026;-58
2021/03/17 01:04:36;;;;;;;4.78;3.45;;;3.50;87.40;;;;;;5002543;28;20075;-59
2021/03/17 01:07:01;;;;;;;10.02;3.38;;;3.50;87.50;;;;;;5001276;28;20034;-58
2021/03/17 01:09:27;;;;;;;6.55;3.88;;;3.50;88.10;;;;;;5002413;28;20135;-59
2021/03/17 01:11:53;;;;;;;6.47;3.72;;;3.50;87.20;;;;;;5002471;28;20057;-58
2021/03/17 01:14:18;;;;;;;8.13;4.20;;;3.50;87.40;;;;;;5001873;28;20073;-59
2021/03/17 01:16:44;;;;;;;6.82;3.45;;;3.40;87.10;;;;;;5001476;28;20053;-59
2021/03/17 01:19:11;;;;;;;12.88;4.63;;;3.40;87.40;;;;;;5001920;28;20080;-59
2021/03/17 01:21:37;;;;;;;4.97;3.50;;;3.40;87.40;;;;;;5001751;28;20057;-59
2021/03/17 01:24:03;;;;;;;6.93;3.45;;;3.40;87.30;;;;;;5001129;28;20030;-58
2021/03/17 01:26:29;;;;;;;8.73;3.65;;;3.40;87.30;;;;;;5000826;28;20036;-59
2021/03/17 01:28:54;;;;;;;4.97;3.10;;;3.40;87.30;;;;;;5000326;28;20087;-58
2021/03/17 01:31:20;;;;;;;6.03;3.58;;;3.40;87.20;;;;;;5001408;28;20040;-59
2021/03/17 01:33:46;;;;;;;7.97;3.67;;;3.40;86.80;;;;;;4982637;28;20113;-59
2021/03/17 01:36:12;;;;;;;7.32;3.38;;;3.40;86.50;;;;;;5000211;28;20034;-58
2021/03/17 01:38:37;;;;;;;6.18;3.15;;;3.40;86.60;;;;;;5000793;28;20030;-58
2021/03/17 01:41:03;;;;;;;6.32;4.07;;;3.40;86.70;;;;;;5000706;28;20034;-59
2021/03/17 01:43:29;;;;;;;10.43;3.40;;;3.40;86.60;;;;;;5001535;28;20040;-57
2021/03/17 01:45:54;;;;;;;6.20;3.08;;;3.40;86.40;;;;;;5000623;28;20041;-58
2021/03/17 01:48:21;;;;;;;8.00;4.03;;;3.40;86.50;;;;;;5001702;28;20402;-58
2021/03/17 01:50:52;;;;;;;6.47;3.30;;;3.40;86.70;;;;;;5000881;28;20041;-59
2021/03/17 01:53:30;;;;;;;7.43;3.30;;;3.40;86.40;;;;;;5001431;28;20068;-58
2021/03/17 01:55:56;;;;;;;5.93;3.25;;;3.40;86.40;;;;;;5000430;28;20148;-59
2021/03/17 01:58:22;;;;;;;6.32;2.80;;;3.40;86.20;;;;;;4999207;28;20557;-59
2021/03/17 02:00:49;;;;;;;5.90;3.25;;;3.40;86.30;;;;;;4998933;28;20111;-58
2021/03/17 02:03:15;;;;;;;5.03;2.80;;;3.30;86.10;;;;;;5001408;28;20124;-59
2021/03/17 02:05:46;;;;;;;5.22;2.78;;;3.30;85.90;;;;;;5001130;28;20483;-58
2021/03/17 02:08:34;;;;;;;5.40;2.35;;;3.30;85.70;;;;;;5000164;28;20639;-58
2021/03/17 02:11:00;;;;;;;5.20;2.40;;;3.20;85.90;;;;;;5000742;28;20068;-59
2021/03/17 02:13:59;;;;;;;5.05;2.33;;;3.20;85.80;;;;;;5000119;28;20037;-59
2021/03/17 02:16:28;;;;;;;5.85;2.03;;;3.10;86.30;;;;;;5000657;28;20028;-58
2021/03/17 02:18:57;;;;;;;5.25;2.45;;;3.10;85.90;;;;;;4991608;28;20050;-58
2021/03/17 02:22:05;;;;;;;5.55;1.75;;;3.10;86.20;;;;;;5000377;28;20137;-59
2021/03/17 02:24:48;;;;;;;5.05;1.90;;;3.00;86.50;;;;;;5001142;28;20041;-59
2021/03/17 02:27:53;;;;;;;6.00;2.10;;;3.00;86.60;;;;;;4997650;28;20120;-59
2021/03/17 02:30:19;;;;;;;3.45;1.30;;;3.00;86.70;;;;;;5000442;28;20160;-58
2021/03/17 02:33:32;;;;;;;4.55;1.65;;;3.00;86.50;;;;;;5000889;28;20773;-58
2021/03/17 02:36:17;;;;;;;3.00;1.65;;;2.90;86.30;;;;;;5000314;28;20041;-58
2021/03/17 02:38:47;;;;;;;4.35;1.80;;;2.90;86.60;;;;;;5001319;28;20708;-58
2021/03/17 02:41:21;;;;;;;3.72;1.77;;;2.90;87.00;;;;;;5000248;28;20045;-58
2021/03/17 02:43:50;;;;;;;4.63;1.65;;;2.90;87.20;;;;;;4999372;28;20052;-59
2021/03/17 02:46:19;;;;;;;3.90;1.45;;;2.90;87.20;;;;;;4999591;28;20038;-58
2021/03/17 02:48:47;;;;;;;6.95;1.73;;;2.90;87.20;;;;;;4993615;28;20604;-58
2021/03/17 02:51:33;;;;;;;5.50;1.55;;;2.90;87.30;;;;;;5000423;28;20111;-59
2021/03/17 02:54:05;;;;;;;3.80;1.63;;;2.90;87.20;;;;;;5000408;28;20096;-58
2021/03/17 02:56:37;;;;;;;2.92;1.45;;;2.90;87.00;;;;;;4997886;28;20049;-59
2021/03/17 02:59:05;;;;;;;10.77;1.92;;;2.90;86.80;;;;;;4999492;28;20037;-58
2021/03/17 03:01:31;;;;;;;3.80;1.80;;;2.90;86.80;;;;;;5000037;28;20042;-58
2021/03/17 03:03:59;;;;;;;3.83;1.48;;;2.90;86.80;;;;;;5000122;28;20790;-58
2021/03/17 03:06:26;;;;;;;7.38;2.03;;;2.90;86.80;;;;;;4999089;28;20033;-59
2021/03/17 03:08:53;;;;;;;2.78;1.30;;;3.00;86.70;;;;;;4991883;28;20050;-59
2021/03/17 03:11:19;;;;;;;6.40;1.70;;;3.00;86.70;;;;;;4999733;28;20408;-59
2021/03/17 03:13:48;;;;;;;3.95;1.48;;;3.10;86.60;;;;;;4999625;28;20065;-58
2021/03/17 03:16:14;;;;;;;2.38;1.30;;;3.20;86.60;;;;;;4999789;28;20471;-58
2021/03/17 03:18:43;;;;;;;4.75;1.40;;;3.20;86.50;;;;;;4999603;28;20053;-58
2021/03/17 03:21:10;;;;;;;5.68;1.17;;;3.20;86.40;;;;;;4999241;28;20050;-59
2021/03/17 03:23:39;;;;;;;5.65;1.25;;;3.30;86.20;;;;;;4999957;28;20048;-59
2021/03/17 03:26:05;;;;;;;2.63;0.93;;;3.40;86.80;;;;;;4999897;28;20473;-58
2021/03/17 03:28:32;;;;;;;3.15;1.10;;;3.50;86.10;;;;;;4999171;28;20026;-58
2021/03/17 03:30:58;;;;;;;4.53;1.20;;;3.50;86.00;;;;;;5000175;28;20034;-58
2021/03/17 03:33:24;;;;;;;2.42;1.05;;;3.60;85.80;;;;;;4999365;28;20040;-59
2021/03/17 03:35:50;;;;;;;2.28;1.05;;;3.70;85.80;;;;;;4999087;28;20030;-58
2021/03/17 03:38:17;;;;;;;2.35;1.05;;;3.70;85.60;;;;;;4998907;28;20056;-58
2021/03/17 03:40:43;;;;;;;3.50;1.02;;;3.70;85.50;;;;;;4999636;28;20868;-58
2021/03/17 03:43:10;;;;;;;5.13;1.52;;;3.80;85.30;;;;;;4998920;28;20080;-59
2021/03/17 03:45:36;;;;;;;5.85;1.17;;;3.90;85.20;;;;;;4999320;28;20657;-58
2021/03/17 03:48:04;;;;;;;4.75;1.30;;;3.90;84.90;;;;;;4998525;28;20105;-59
2021/03/17 03:50:33;;;;;;;5.88;1.45;;;3.90;84.70;;;;;;4999230;28;20140;-59
2021/03/17 03:53:27;;;;;;;3.45;1.63;;;3.90;84.60;;;;;;4998350;28;20037;-58
2021/03/17 03:56:26;;;;;;;5.90;1.13;;;4.00;84.60;;;;;;4997570;28;20044;-58
2021/03/17 03:59:12;;;;;;;7.07;1.67;;;4.00;84.70;;;;;;4998084;28;20927;-58
2021/03/17 04:01:44;;;;;;;12.32;2.05;;;4.00;85.20;;;;;;4995800;28;20033;-58
2021/03/17 04:04:13;;;;;;;6.78;1.45;;;4.00;84.50;;;;;;4998944;28;20128;-59
2021/03/17 04:06:41;;;;;;;9.90;1.52;;;4.00;84.40;;;;;;4998211;28;20033;-58
2021/03/17 04:09:09;;;;;;;4.85;1.23;;;4.00;84.50;;;;;;4997949;28;20033;-58
2021/03/17 04:11:38;;;;;;;7.43;1.38;;;4.00;84.20;;;;;;4998874;28;20548;-58
2021/03/17 04:14:07;;;;;;;2.63;1.20;;;4.00;84.20;;;;;;4998881;28;20830;-58
2021/03/17 04:16:35;;;;;;;5.32;1.30;;;4.10;84.30;;;;;;4997908;28;20034;-61
2021/03/17 04:19:02;;;;;;;3.50;1.20;;;4.10;84.30;;;;;;4999186;28;20509;-61
2021/03/17 04:21:30;;;;;;;4.38;1.75;;;4.10;84.10;;;;;;4996859;28;20041;-61
2021/03/17 04:24:00;;;;;;;4.63;1.55;;;4.20;84.10;;;;;;4998815;28;20088;-62
2021/03/17 04:26:27;;;;;;;2.05;1.30;;;4.20;84.10;;;;;;4997943;28;20038;-61
2021/03/17 04:28:55;;;;;;;3.20;1.00;;;4.20;84.10;;;;;;4996310;28;20695;-61
2021/03/17 04:31:23;;;;;;;1.65;1.23;;;4.30;84.10;;;;;;4996434;28;20534;-62
2021/03/17 04:33:49;;;;;;;4.10;1.10;;;4.20;83.90;;;;;;4997708;28;20042;-61
2021/03/17 04:36:16;;;;;;;4.25;1.15;;;4.20;84.00;;;;;;4997546;28;20833;-61
2021/03/17 04:38:42;;;;;;;4.60;1.25;;;4.10;83.70;;;;;;4998264;28;20137;-62
2021/03/17 04:41:09;;;;;;;2.15;1.30;;;4.10;83.80;;;;;;4998544;28;20041;-62
2021/03/17 04:43:40;;;;;;;3.22;1.10;;;4.00;84.00;;;;;;4998213;28;20107;-60
2021/03/17 04:46:07;;;;;;;2.50;1.08;;;3.90;84.20;;;;;;4998087;28;20481;-61
2021/03/17 04:48:37;;;;;;;4.85;1.25;;;3.90;84.20;;;;;;4998096;28;20316;-61
2021/03/17 04:51:04;;;;;;;4.30;1.35;;;3.80;83.80;;;;;;4992419;28;20107;-61
2021/03/17 04:53:30;;;;;;;6.75;1.63;;;3.90;84.10;;;;;;4997939;28;20088;-61
2021/03/17 04:55:56;;;;;;;1.98;1.45;;;3.90;84.10;;;;;;4997511;28;20128;-61
2021/03/17 04:58:25;;;;;;;4.32;1.10;;;4.00;84.00;;;;;;4997039;28;20033;-61
2021/03/17 05:00:53;;;;;;;4.88;1.35;;;4.00;84.10;;;;;;4997817;28;20064;-61
2021/03/17 05:03:23;;;;;;;4.88;1.70;;;4.00;84.60;;;;;;4996791;28;20025;-62
2021/03/17 05:05:51;;;;;;;1.38;1.10;;;4.10;83.80;;;;;;4996612;28;20041;-61
2021/03/17 05:08:19;;;;;;;1.70;0.95;;;4.10;83.70;;;;;;4997211;28;20084;-62
2021/03/17 05:10:47;;;;;;;5.20;1.25;;;4.10;84.00;;;;;;5004956;28;20418;-61
2021/03/17 05:13:14;;;;;;;2.72;1.00;;;4.10;84.00;;;;;;4997991;28;20548;-61
2021/03/17 05:15:41;;;;;;;4.05;1.30;;;4.20;84.00;;;;;;4996961;28;20045;-61
2021/03/17 05:18:08;;;;;;;4.13;1.00;;;4.20;83.90;;;;;;4998043;28;20351;-61
2021/03/17 05:20:34;;;;;;;5.75;1.40;;;4.20;84.50;;;;;;4996844;28;20861;-61
2021/03/17 05:23:01;;;;;;;4.78;1.27;;;4.30;83.80;;;;;;4992557;28;20806;-61
2021/03/17 05:25:28;;;;;;;4.15;1.20;;;4.30;83.70;;;;;;4997318;28;20117;-61
2021/03/17 05:27:57;;;;;;;5.95;1.30;;;4.40;83.80;;;;;;4997809;28;20933;-61
2021/03/17 05:30:26;;;;;;;2.80;1.20;;;4.40;83.90;;;;;;4997132;28;20690;-61
2021/03/17 05:32:55;;;;;;;3.97;1.20;;;4.40;84.00;;;;;;4998075;28;20041;-61
2021/03/17 05:35:21;;;;;;;3.75;1.10;;;4.50;84.00;;;;;;4995959;28;20048;-61
2021/03/17 05:37:46;;;;;;;4.38;1.50;;;4.50;83.80;;;;;;4997093;28;20037;-62
2021/03/17 05:40:15;;;;;;;4.70;1.42;;;4.50;83.90;;;;;;4996786;28;20550;-61
2021/03/17 05:42:42;;;;;;;10.98;1.65;;;4.60;83.70;;;;;;4996925;28;20394;-61
2021/03/17 05:45:13;;;;;;;3.25;1.30;;;4.60;83.60;;;;;;4996486;28;20029;-61
2021/03/17 05:47:44;;;;;;;5.45;1.38;;;4.70;83.40;;;;;;4996928;28;20028;-61
2021/03/17 05:50:12;;;;;;;9.32;1.88;;;4.70;83.10;;;;;;4996710;28;20045;-61
2021/03/17 05:52:40;;;;;;;4.03;1.55;;;4.70;83.20;;;;;;4997175;28;20485;-61
2021/03/17 05:55:07;;;;;;;3.47;1.50;;;4.70;83.20;;;;;;4996934;28;20833;-62
2021/03/17 05:57:34;;;;;;;3.13;1.42;;;4.70;83.20;;;;;;4996478;28;20037;-61
2021/03/17 06:00:00;;;;;;;7.18;1.85;;;4.70;83.30;;;;;;4996959;28;20144;-61
2021/03/17 06:02:25;;;;;;;6.97;2.03;;;4.80;83.10;;;;;;4996927;28;20034;-61
2021/03/17 06:04:52;;;;;;;4.93;1.48;;;4.80;83.00;;;;;;4996982;28;20034;-61
2021/03/17 06:07:32;;;;;;;5.00;1.52;;;4.80;82.80;;;;;;4994701;28;20048;-62
2021/03/17 06:10:02;;;;;;;4.38;1.70;;;4.90;82.90;;;;;;4996162;28;20120;-66
2021/03/17 06:12:30;;;;;;;10.13;2.53;;;4.90;82.80;;;;;;4993713;28;20060;-61
2021/03/17 06:14:56;;;;;;;6.63;2.42;;;4.90;83.00;;;;;;4996174;28;20688;-61
2021/03/17 06:17:27;;;;;;;5.00;2.30;;;4.90;82.70;;;;;;4996458;28;20044;-61
2021/03/17 06:20:01;;;;;;;9.80;2.40;;;4.90;82.50;;;;;;4997799;28;20502;-61
2021/03/17 06:22:27;;;;;;;8.50;2.63;;;5.00;82.30;;;;;;5000718;28;20030;-62
2021/03/17 06:24:53;;;;;;;11.75;2.75;;;5.00;81.90;;;;;;4999738;28;20117;-61
2021/03/17 06:27:20;;;;;;;10.77;2.53;;;5.10;81.70;;;;;;4996473;28;20101;-61
2021/03/17 06:29:46;;;;;;;8.57;2.50;;;5.20;81.10;;;;;;4999992;28;20034;-62
2021/03/17 06:32:12;;;;;;;8.05;2.60;;;5.30;80.60;;;;;;5000927;28;20042;-61
2021/03/17 06:34:49;;;;;;;6.50;2.90;;;5.30;80.50;;;;;;4991777;28;20727;-62
2021/03/17 06:37:15;;;;;;;22.08;7.85;;;5.30;79.80;;;;;;4999502;28;20406;-61
2021/03/17 06:39:42;;;;;;;7.97;3.25;;;5.30;80.10;;;;;;4999863;28;20030;-61
2021/03/17 06:42:10;;;;;;;12.05;3.08;;;5.40;79.80;;;;;;5000327;28;20037;-61
2021/03/17 06:44:36;;;;;;;14.13;3.30;;;5.50;79.50;;;;;;5000684;28;20077;-61
2021/03/17 06:47:19;;;;;;;8.68;3.47;;;5.50;78.80;;;;;;4999746;28;20116;-61
2021/03/17 06:49:54;;;;;;;11.43;3.55;;;5.50;79.20;;;;;;4997380;28;20362;-61
2021/03/17 06:52:38;;;;;;;12.13;4.13;;;5.60;79.10;;;;;;5000123;28;20042;-61
2021/03/17 06:55:04;;;;;;;11.98;3.63;;;5.70;79.20;;;;;;4998095;28;20056;-61
2021/03/17 06:57:30;;;;;;;10.55;4.15;;;5.80;78.60;;;;;;4999488;28;20049;-61
2021/03/17 07:00:24;;;;;;;8.30;3.83;;;5.80;78.50;;;;;;5000035;28;20115;-62
2021/03/17 07:03:03;;;;;;;13.30;4.75;;;5.90;78.00;;;;;;4999874;28;20920;-61
2021/03/17 07:05:46;;;;;;;11.82;4.20;;;6.10;78.40;;;;;;5000206;28;20038;-62
2021/03/17 07:08:28;;;;;;;16.08;5.00;;;6.40;78.00;;;;;;4995459;28;20117;-62
2021/03/17 07:11:01;;;;;;;16.63;4.90;;;6.60;77.10;;;;;;4998625;28;20045;-63
2021/03/17 07:13:30;;;;;;;11.60;4.95;;;6.90;75.50;;;;;;4999047;28;20180;-62
2021/03/17 07:15:57;;;;;;;17.42;6.28;;;6.90;73.80;;;;;;4999466;28;20120;-61
2021/03/17 07:18:27;;;;;;;11.70;5.35;;;7.00;73.70;;;;;;4998115;28;20048;-61
2021/03/17 07:20:58;;;;;;;14.23;4.63;;;7.20;73.70;;;;;;4999952;28;20121;-61
2021/03/17 07:23:34;;;;;;;14.10;5.57;;;7.20;73.50;;;;;;4999582;28;20119;-62
2021/03/17 07:26:15;;;;;;;11.75;4.95;;;7.30;73.00;;;;;;4992216;28;20568;-62
2021/03/17 07:28:47;;;;;;;15.13;5.60;;;7.50;72.60;;;;;;4999152;28;20108;-61
2021/03/17 07:31:50;;;;;;;12.32;4.72;;;7.70;70.80;;;;;;4998533;28;20266;-62
2021/03/17 07:34:26;;;;;;;13.75;4.75;;;7.80;70.60;;;;;;4989505;28;20160;-61
2021/03/17 07:37:03;;;;;;;10.50;4.70;;;7.80;70.80;;;;;;4997600;28;20387;-61
2021/03/17 07:39:37;;;;;;;14.18;5.65;;;7.80;71.20;;;;;;4998030;28;20080;-61
2021/03/17 07:42:06;;;;;;;18.33;6.93;;;7.80;70.80;;;;;;4993054;28;20042;-61
2021/03/17 07:44:33;;;;;;;10.27;4.75;;;7.80;72.40;;;;;;4998477;28;20049;-65
2021/03/17 07:47:01;;;;;;;14.85;4.22;;;7.80;73.20;;;;;;4994412;28;20030;-61
2021/03/17 07:49:28;;;;;;;10.75;4.60;;;8.30;74.80;;;;;;4996374;28;20048;-61
2021/03/17 07:52:02;;;;;;;10.80;5.05;;;8.70;71.30;;;;;;4997982;28;20045;-61
2021/03/17 07:54:38;;;;;;;10.90;4.90;;;9.30;67.70;;;;;;4998287;28;20091;-61
2021/03/17 07:57:07;;;;;;;11.05;4.88;;;9.90;64.00;;;;;;4992559;28;20826;-63
2021/03/17 07:59:36;;;;;;;10.88;4.88;;;10.20;62.00;;;;;;4998254;28;20561;-61
2021/03/17 08:02:02;;;;;;;11.45;5.57;;;10.40;61.50;;;;;;4992607;28;20509;-62
2021/03/17 08:04:33;;;;;;;11.77;5.18;;;10.40;59.90;;;;;;4997822;28;20096;-62
2021/03/17 08:07:04;;;;;;;12.50;5.45;;;10.10;61.80;;;;;;4998206;28;20038;-62
2021/03/17 08:09:33;;;;;;;11.55;6.13;;;9.80;61.60;;;;;;4998975;28;20038;-63
2021/03/17 08:12:08;;;;;;;16.10;5.95;;;9.50;63.00;;;;;;4991045;28;20573;-64
2021/03/17 08:14:35;;;;;;;11.02;4.85;;;9.10;63.90;;;;;;4998760;28;20708;-63
2021/03/17 08:17:01;;;;;;;12.50;5.68;;;8.80;65.20;;;;;;4997292;28;20072;-62
2021/03/17 08:19:29;;;;;;;11.55;6.18;;;8.70;66.00;;;;;;4998019;28;20116;-62
2021/03/17 08:21:56;;;;;;;15.13;6.20;;;8.70;66.90;;;;;;4998422;28;20944;-62
2021/03/17 08:24:32;;;;;;;14.50;5.53;;;8.50;66.50;;;;;;4997988;28;20095;-61
2021/03/17 08:27:07;;;;;;;11.77;6.10;;;8.40;68.60;;;;;;4997883;28;20104;-62
2021/03/17 08:29:39;;;;;;;12.30;5.78;;;8.30;66.80;;;;;;4998785;28;20787;-62
2021/03/17 08:32:07;;;;;;;7.57;5.28;;;8.20;68.20;;;;;;4980789;28;20038;-59
2021/03/17 08:34:34;;;;;;;13.32;5.97;;;8.00;68.00;;;;;;4996795;28;20058;-58
2021/03/17 08:37:05;;;;;;;10.13;5.65;;;8.00;69.00;;;;;;4996608;28;20678;-60
2021/03/17 08:39:33;;;;;;;14.18;6.13;;;7.90;69.20;;;;;;4979565;28;20038;-59
2021/03/17 08:42:03;;;;;;;12.82;5.97;;;7.90;69.60;;;;;;4997272;28;20501;-59
2021/03/17 08:44:39;;;;;;;13.25;5.97;;;7.90;69.50;;;;;;4979024;28;20034;-59
2021/03/17 08:47:18;;;;;;;15.27;6.55;;;7.90;69.60;;;;;;4983884;28;20034;-60
2021/03/17 08:49:46;;;;;;;56.53;21.23;;;7.90;69.30;;;;;;4997389;28;20383;-59
2021/03/17 08:52:20;;;;;;;29.85;11.52;;;7.90;69.50;;;;;;5000213;28;20030;-59
2021/03/17 08:54:58;;;;;;;17.55;8.13;;;7.90;68.40;;;;;;4996770;28;20034;-59
2021/03/17 08:57:44;;;;;;;12.68;6.13;;;7.70;70.40;;;;;;4999159;28;20116;-59
2021/03/17 09:00:10;;;;;;;15.52;5.60;;;7.70;69.50;;;;;;4998319;28;20168;-58
2021/03/17 09:02:36;;;;;;;12.02;5.80;;;7.50;70.10;;;;;;4998563;28;20040;-59
2021/03/17 09:05:16;;;;;;;12.23;6.28;;;7.40;71.00;;;;;;4993232;28;20038;-59
2021/03/17 09:08:08;;;;;;;9.85;5.85;;;7.40;71.10;;;;;;4997673;28;20045;-59
2021/03/17 09:10:48;;;;;;;12.93;6.05;;;7.50;71.60;;;;;;4997739;28;20045;-59
2021/03/17 09:13:35;;;;;;;10.40;5.15;;;7.60;70.90;;;;;;4997224;28;20030;-59
2021/03/17 09:16:03;;;;;;;9.70;5.40;;;7.70;71.00;;;;;;4994834;28;20037;-59
2021/03/17 09:18:29;;;;;;;9.73;4.82;;;7.70;71.50;;;;;;4996997;28;20176;-60
2021/03/17 09:20:56;;;;;;;11.30;5.15;;;7.80;69.80;;;;;;4996907;28;20757;-59
2021/03/17 09:23:23;;;;;;;10.10;5.07;;;7.90;68.80;;;;;;4992456;28;20097;-59
2021/03/17 09:25:53;;;;;;;8.88;4.60;;;7.90;69.50;;;;;;4996818;28;20049;-59
2021/03/17 09:28:22;;;;;;;9.57;5.07;;;8.00;70.00;;;;;;4996787;28;20038;-59
2021/03/17 09:30:56;;;;;;;8.32;4.82;;;8.10;69.60;;;;;;4995834;28;20033;-59
2021/03/17 09:33:32;;;;;;;10.27;4.80;;;8.20;69.20;;;;;;4996959;28;20044;-59
2021/03/17 09:36:01;;;;;;;9.68;4.68;;;8.00;68.30;;;;;;4997009;28;20038;-58
2021/03/17 09:38:31;;;;;;;10.48;4.25;;;8.10;68.70;;;;;;4997342;28;20478;-59
2021/03/17 09:41:07;;;;;;;7.57;3.83;;;8.10;69.00;;;;;;4996814;28;20701;-59
2021/03/17 09:43:37;;;;;;;10.68;4.97;;;8.20;69.50;;;;;;4997460;28;20034;-62
2021/03/17 09:46:31;;;;;;;8.45;4.88;;;8.30;70.50;;;;;;4991200;28;20038;-62
2021/03/17 09:49:08;;;;;;;13.57;5.30;;;8.40;68.00;;;;;;4986994;28;20054;-62
2021/03/17 09:51:52;;;;;;;8.52;4.45;;;8.40;68.90;;;;;;4997459;28;20040;-62
2021/03/17 09:54:22;;;;;;;8.00;4.28;;;8.30;67.90;;;;;;4992690;28;20549;-62
2021/03/17 09:56:50;;;;;;;6.97;4.13;;;8.40;68.90;;;;;;4996160;28;20129;-62
2021/03/17 09:59:34;;;;;;;7.97;4.55;;;8.50;68.10;;;;;;4996617;28;20041;-58
2021/03/17 10:02:14;;;;;;;10.10;4.35;;;8.50;67.60;;;;;;4994859;28;20952;-62
2021/03/17 10:04:43;;;;;;;7.88;4.50;;;8.50;67.60;;;;;;4995348;28;20107;-59
2021/03/17 10:07:11;;;;;;;7.72;4.28;;;8.40;66.80;;;;;;4992498;28;20044;-59
2021/03/17 10:09:38;;;;;;;7.93;4.30;;;8.40;67.90;;;;;;4997074;28;20038;-63
2021/03/17 10:12:09;;;;;;;8.55;4.60;;;8.50;68.30;;;;;;4995836;28;20870;-62
2021/03/17 10:14:37;;;;;;;9.98;4.78;;;8.60;68.60;;;;;;4996956;28;20032;-62
2021/03/17 10:17:06;;;;;;;7.45;4.65;;;8.70;67.00;;;;;;4994685;28;20038;-59
2021/03/17 10:19:33;;;;;;;7.72;4.72;;;8.80;67.40;;;;;;4991023;28;20045;-59
2021/03/17 10:22:00;;;;;;;7.53;4.47;;;8.90;66.40;;;;;;4980280;28;20034;-59
2021/03/17 10:24:37;;;;;;;5.93;3.45;;;9.00;65.40;;;;;;4982964;28;20589;-62
2021/03/17 10:27:05;;;;;;;7.93;4.07;;;9.10;65.70;;;;;;4990439;28;20092;-64
2021/03/17 10:29:31;;;;;;;8.73;4.40;;;9.20;65.10;;;;;;4992234;28;20057;-62
2021/03/17 10:31:57;;;;;;;8.32;5.28;;;9.30;64.60;;;;;;4987860;28;20070;-62
2021/03/17 10:34:26;;;;;;;11.07;5.22;;;9.30;65.20;;;;;;4995064;28;20042;-62
2021/03/17 10:36:54;;;;;;;7.80;4.40;;;9.30;65.10;;;;;;4990569;28;20941;-62
2021/03/17 10:39:28;;;;;;;7.93;3.78;;;9.30;64.90;;;;;;4990399;28;20038;-63
2021/03/17 10:41:53;;;;;;;6.35;4.07;;;9.30;65.60;;;;;;4992175;28;20046;-62
2021/03/17 10:44:23;;;;;;;7.18;3.80;;;9.30;66.10;;;;;;4992735;28;20026;-62
2021/03/17 10:47:06;;;;;;;3.80;2.90;;;9.30;65.10;;;;;;4978033;28;20042;-62
2021/03/17 10:49:38;;;;;;;6.95;3.88;;;9.30;64.50;;;;;;4988846;28;20037;-63
2021/03/17 10:52:04;;;;;;;4.15;2.65;;;9.40;65.90;;;;;;4984529;28;20034;-62
2021/03/17 10:54:37;;;;;;;5.82;3.25;;;9.50;63.70;;;;;;4991966;28;20441;-62
2021/03/17 10:57:04;;;;;;;4.10;3.25;;;9.70;64.50;;;;;;4980514;28;20130;-63
2021/03/17 10:59:35;;;;;;;4.88;3.05;;;9.90;62.20;;;;;;4988899;28;20037;-63
2021/03/17 11:02:21;;;;;;;4.45;3.53;;;10.10;63.40;;;;;;4982283;28;20476;-59
2021/03/17 11:05:13;;;;;;;7.47;3.58;;;10.20;63.10;;;;;;4992183;28;20638;-59
2021/03/17 11:08:05;;;;;;;5.93;3.50;;;10.20;61.20;;;;;;4999413;28;20033;-59
2021/03/17 11:10:53;;;;;;;7.70;4.30;;;10.00;61.60;;;;;;4998447;28;20758;-59
2021/03/17 11:13:19;;;;;;;11.75;4.80;;;9.90;62.90;;;;;;4996435;28;20141;-61
2021/03/17 11:15:48;;;;;;;6.75;4.38;;;10.00;63.60;;;;;;4998858;28;20047;-61
2021/03/17 11:18:52;;;;;;;8.43;4.38;;;10.20;64.20;;;;;;4998192;28;20038;-62
2021/03/17 11:21:30;;;;;;;4.82;3.22;;;10.40;62.50;;;;;;4995964;28;20037;-65
2021/03/17 11:24:01;;;;;;;5.35;3.22;;;10.30;61.70;;;;;;5000132;28;20041;-59
2021/03/17 11:26:38;;;;;;;6.97;2.85;;;10.20;62.20;;;;;;4998802;28;20042;-59
2021/03/17 11:29:28;;;;;;;4.90;2.50;;;10.10;63.20;;;;;;4999221;28;20800;-59
2021/03/17 11:32:05;;;;;;;5.13;2.80;;;9.90;61.70;;;;;;4998139;28;20873;-59
2021/03/17 11:34:31;;;;;;;5.43;2.40;;;9.80;62.50;;;;;;4999283;28;20529;-59
2021/03/17 11:36:56;;;;;;;3.45;2.50;;;9.80;62.70;;;;;;4996083;28;20044;-59
2021/03/17 11:39:22;;;;;;;5.50;1.98;;;9.80;63.00;;;;;;4999445;28;20042;-59
2021/03/17 11:41:49;;;;;;;4.82;2.75;;;9.80;63.70;;;;;;4999316;28;20386;-59
2021/03/17 11:44:17;;;;;;;3.97;2.45;;;9.90;63.50;;;;;;4999383;28;20553;-59
2021/03/17 11:46:43;;;;;;;3.28;2.05;;;9.90;63.80;;;;;;4998969;28;20127;-59
2021/03/17 11:49:08;;;;;;;3.90;2.00;;;10.00;63.20;;;;;;4997969;28;20562;-59
2021/03/17 11:51:34;;;;;;;6.07;2.30;;;10.10;62.00;;;;;;4994473;28;20052;-59
2021/03/17 11:54:00;;;;;;;5.38;2.58;;;10.10;62.80;;;;;;4998367;28;20037;-59
2021/03/17 11:56:25;;;;;;;4.15;2.50;;;10.20;62.80;;;;;;4997867;28;20076;-59
2021/03/17 11:58:51;;;;;;;3.85;2.90;;;10.20;62.10;;;;;;4997282;28;20141;-59
2021/03/17 12:01:17;;;;;;;5.40;3.08;;;10.30;61.40;;;;;;4998315;28;20120;-59
2021/03/17 12:03:43;;;;;;;4.70;2.97;;;10.30;62.20;;;;;;4991876;28;20066;-59
2021/03/17 12:06:09;;;;;;;4.35;3.10;;;10.40;62.80;;;;;;4995779;28;20250;-59
2021/03/17 12:08:36;;;;;;;4.70;3.05;;;10.50;62.50;;;;;;4998297;28;20088;-59
2021/03/17 12:11:02;;;;;;;4.45;3.17;;;10.60;61.90;;;;;;4991539;28;20050;-59
2021/03/17 12:13:28;;;;;;;3.28;2.67;;;10.60;61.80;;;;;;4998071;28;20790;-60
2021/03/17 12:15:54;;;;;;;3.42;2.92;;;10.60;62.60;;;;;;4994878;28;20041;-59
2021/03/17 12:18:19;;;;;;;4.22;3.05;;;10.50;63.10;;;;;;4997347;28;20478;-59
2021/03/17 12:20:46;;;;;;;5.45;3.70;;;10.50;62.80;;;;;;4997613;28;20037;-59
2021/03/17 12:23:12;;;;;;;6.93;3.10;;;10.40;62.70;;;;;;4998671;28;20569;-59
2021/03/17 12:25:38;;;;;;;9.38;3.80;;;10.30;61.50;;;;;;4997357;28;20145;-59
2021/03/17 12:28:04;;;;;;;3.60;2.47;;;10.30;63.80;;;;;;4997102;28;20037;-59
2021/03/17 12:30:30;;;;;;;4.00;2.60;;;10.40;62.80;;;;;;4996525;28;20036;-59
2021/03/17 12:32:56;;;;;;;4.57;2.60;;;10.50;60.70;;;;;;4995742;28;20040;-59
2021/03/17 12:35:23;;;;;;;5.78;3.17;;;10.60;61.30;;;;;;4996588;28;20477;-59
2021/03/17 12:37:51;;;;;;;3.75;2.90;;;10.60;61.70;;;;;;4997351;28;20125;-59
2021/03/17 12:40:20;;;;;;;3.15;2.30;;;10.50;61.20;;;;;;4997613;28;20049;-59
2021/03/17 12:42:46;;;;;;;5.05;2.97;;;10.40;61.90;;;;;;4994110;28;20117;-59
2021/03/17 12:45:15;;;;;;;4.43;2.78;;;10.40;60.40;;;;;;4996071;28;20057;-59
2021/03/17 12:47:42;;;;;;;5.55;2.90;;;10.30;61.60;;;;;;4996202;28;20486;-58
2021/03/17 12:50:11;;;;;;;3.47;2.05;;;10.20;59.10;;;;;;4996217;28;20848;-58
2021/03/17 12:52:36;;;;;;;1.90;1.70;;;10.10;61.00;;;;;;4997352;28;20478;-58
2021/03/17 12:55:04;;;;;;;4.20;1.90;;;10.00;62.40;;;;;;4996352;28;20121;-56
2021/03/17 12:57:30;;;;;;;3.08;2.05;;;10.20;62.10;;;;;;4998021;28;20041;-58
2021/03/17 12:59:57;;;;;;;4.53;2.25;;;10.30;60.20;;;;;;4997458;28;20069;-57
2021/03/17 13:02:24;;;;;;;2.63;1.85;;;10.40;59.20;;;;;;4996202;28;20034;-56
2021/03/17 13:04:50;;;;;;;3.75;2.10;;;10.50;59.10;;;;;;4997030;28;20065;-56
2021/03/17 13:07:17;;;;;;;2.75;2.10;;;10.50;59.40;;;;;;4997004;28;20125;-56
2021/03/17 13:09:44;;;;;;;2.05;1.77;;;10.50;59.70;;;;;;4997559;28;20038;-56
2021/03/17 13:12:10;;;;;;;3.78;2.20;;;10.50;61.20;;;;;;4996796;28;20034;-58
2021/03/17 13:14:36;;;;;;;3.00;2.08;;;10.50;60.20;;;;;;4997447;28;20125;-57